sensor_id;sensor_type;location;lat;lon;timestamp;pressure;altitude;pressure_sealevel;temperature;humidity
84752;BME280;74978;37.772;-122.432;2024-01-30T00:01:31;101281.63;;;16.44;34.84
84752;BME280;74978;37.772;-122.432;2024-01-30T00:03:56;101277.05;;;16.97;33.81
84752;BME280;74978;37.772;-122.432;2024-01-30T00:06:22;101277.11;;;16.58;34.67
84752;BME280;74978;37.772;-122.432;2024-01-30T00:08:47;101281.70;;;17.35;33.82
84752;BME280;74978;37.772;-122.432;2024-01-30T00:11:13;101286.97;;;17.23;33.06
84752;BME280;74978;37.772;-122.432;2024-01-30T00:13:38;101289.11;;;17.89;32.84
84752;BME280;74978;37.772;-122.432;2024-01-30T00:16:04;101296.02;;;16.15;33.66
84752;BME280;74978;37.772;-122.432;2024-01-30T00:18:29;101294.91;;;16.58;34.35
84752;BME280;74978;37.772;-122.432;2024-01-30T00:20:55;101298.54;;;16.07;34.39
84752;BME280;74978;37.772;-122.432;2024-01-30T00:23:20;101302.93;;;16.52;34.09
84752;BME280;74978;37.772;-122.432;2024-01-30T00:25:45;101304.70;;;15.97;34.43
84752;BME280;74978;37.772;-122.432;2024-01-30T00:28:10;101307.55;;;15.87;34.62
84752;BME280;74978;37.772;-122.432;2024-01-30T00:30:36;101313.47;;;17.06;32.85
84752;BME280;74978;37.772;-122.432;2024-01-30T00:33:01;101310.49;;;18.22;30.51
84752;BME280;74978;37.772;-122.432;2024-01-30T00:35:26;101309.82;;;18.63;30.54
84752;BME280;74978;37.772;-122.432;2024-01-30T00:37:52;101311.04;;;19.25;29.43
84752;BME280;74978;37.772;-122.432;2024-01-30T00:40:17;101315.81;;;20.68;27.74
84752;BME280;74978;37.772;-122.432;2024-01-30T00:42:44;101316.01;;;19.35;29.19
84752;BME280;74978;37.772;-122.432;2024-01-30T00:45:13;101322.46;;;19.85;28.07
84752;BME280;74978;37.772;-122.432;2024-01-30T00:47:34;101325.09;;;18.95;28.73
84752;BME280;74978;37.772;-122.432;2024-01-30T00:49:59;101325.38;;;20.08;28.11
84752;BME280;74978;37.772;-122.432;2024-01-30T00:52:25;101333.61;;;18.68;29.34
84752;BME280;74978;37.772;-122.432;2024-01-30T00:54:50;101336.59;;;17.60;31.07
84752;BME280;74978;37.772;-122.432;2024-01-30T00:57:16;101343.64;;;18.18;31.36
84752;BME280;74978;37.772;-122.432;2024-01-30T00:59:41;101344.22;;;17.76;32.11
84752;BME280;74978;37.772;-122.432;2024-01-30T01:02:07;101340.64;;;17.17;30.93
84752;BME280;74978;37.772;-122.432;2024-01-30T01:04:33;101342.67;;;18.69;29.56
84752;BME280;74978;37.772;-122.432;2024-01-30T01:06:58;101347.17;;;16.35;31.92
84752;BME280;74978;37.772;-122.432;2024-01-30T01:09:23;101339.46;;;14.94;34.16
84752;BME280;74978;37.772;-122.432;2024-01-30T01:11:49;101342.09;;;14.73;35.58
84752;BME280;74978;37.772;-122.432;2024-01-30T01:14:15;101340.52;;;14.41;36.22
84752;BME280;74978;37.772;-122.432;2024-01-30T01:16:40;101336.82;;;13.61;38.14
84752;BME280;74978;37.772;-122.432;2024-01-30T01:19:06;101331.56;;;13.41;37.53
84752;BME280;74978;37.772;-122.432;2024-01-30T01:21:31;101328.88;;;13.28;38.99
84752;BME280;74978;37.772;-122.432;2024-01-30T01:23:56;101329.60;;;13.60;40.19
84752;BME280;74978;37.772;-122.432;2024-01-30T01:26:22;101324.87;;;13.14;40.77
84752;BME280;74978;37.772;-122.432;2024-01-30T01:28:47;101314.54;;;13.73;39.55
84752;BME280;74978;37.772;-122.432;2024-01-30T01:31:12;101314.08;;;13.45;38.91
84752;BME280;74978;37.772;-122.432;2024-01-30T01:33:38;101304.74;;;14.70;38.01
84752;BME280;74978;37.772;-122.432;2024-01-30T01:36:04;101299.04;;;14.74;36.42
84752;BME280;74978;37.772;-122.432;2024-01-30T01:38:29;101293.35;;;16.67;34.72
84752;BME280;74978;37.772;-122.432;2024-01-30T01:40:54;101292.02;;;14.98;36.51
84752;BME280;74978;37.772;-122.432;2024-01-30T01:43:20;101286.08;;;15.77;35.92
84752;BME280;74978;37.772;-122.432;2024-01-30T01:45:46;101284.77;;;16.60;34.37
84752;BME280;74978;37.772;-122.432;2024-01-30T01:48:12;101273.61;;;15.92;34.72
84752;BME280;74978;37.772;-122.432;2024-01-30T01:50:38;101265.09;;;16.89;33.26
84752;BME280;74978;37.772;-122.432;2024-01-30T01:53:03;101264.81;;;17.39;33.15
84752;BME280;74978;37.772;-122.432;2024-01-30T01:55:29;101263.47;;;18.91;31.05
84752;BME280;74978;37.772;-122.432;2024-01-30T01:57:54;101258.79;;;17.99;32.20
84752;BME280;74978;37.772;-122.432;2024-01-30T02:00:19;101262.40;;;19.17;30.65
84752;BME280;74978;37.772;-122.432;2024-01-30T02:02:46;101267.00;;;18.79;30.59
84752;BME280;74978;37.772;-122.432;2024-01-30T02:05:10;101276.29;;;16.45;32.76
84752;BME280;74978;37.772;-122.432;2024-01-30T02:07:35;101281.83;;;15.84;34.62
84752;BME280;74978;37.772;-122.432;2024-01-30T02:10:02;101286.18;;;16.78;33.75
84752;BME280;74978;37.772;-122.432;2024-01-30T02:12:26;101285.48;;;18.16;31.68
84752;BME280;74978;37.772;-122.432;2024-01-30T02:14:51;101298.19;;;15.99;34.31
84752;BME280;74978;37.772;-122.432;2024-01-30T02:17:17;101307.72;;;14.37;36.87
84752;BME280;74978;37.772;-122.432;2024-01-30T02:19:42;101315.13;;;14.40;37.41
84752;BME280;74978;37.772;-122.432;2024-01-30T02:22:08;101320.15;;;12.68;40.26
84752;BME280;74978;37.772;-122.432;2024-01-30T02:24:33;101324.56;;;12.96;41.33
84752;BME280;74978;37.772;-122.432;2024-01-30T02:26:59;101326.17;;;13.03;41.39
84752;BME280;74978;37.772;-122.432;2024-01-30T02:29:25;101330.09;;;12.79;42.20
84752;BME280;74978;37.772;-122.432;2024-01-30T02:31:50;101332.09;;;12.67;42.71
84752;BME280;74978;37.772;-122.432;2024-01-30T02:34:16;101329.67;;;12.78;42.39
84752;BME280;74978;37.772;-122.432;2024-01-30T02:36:43;101329.08;;;12.63;42.15
84752;BME280;74978;37.772;-122.432;2024-01-30T02:39:06;101334.72;;;12.20;41.95
84752;BME280;74978;37.772;-122.432;2024-01-30T02:41:32;101336.44;;;12.74;42.05
84752;BME280;74978;37.772;-122.432;2024-01-30T02:43:57;101342.02;;;12.62;43.15
84752;BME280;74978;37.772;-122.432;2024-01-30T02:46:23;101344.80;;;12.47;44.21
84752;BME280;74978;37.772;-122.432;2024-01-30T02:48:48;101347.95;;;11.77;46.17
84752;BME280;74978;37.772;-122.432;2024-01-30T02:51:14;101347.03;;;12.11;45.29
84752;BME280;74978;37.772;-122.432;2024-01-30T02:53:40;101346.94;;;12.21;44.65
84752;BME280;74978;37.772;-122.432;2024-01-30T02:56:05;101347.75;;;11.71;44.66
84752;BME280;74978;37.772;-122.432;2024-01-30T02:58:35;101355.72;;;12.70;43.91
84752;BME280;74978;37.772;-122.432;2024-01-30T03:00:56;101355.16;;;12.69;43.84
84752;BME280;74978;37.772;-122.432;2024-01-30T03:03:22;101351.55;;;12.89;43.54
84752;BME280;74978;37.772;-122.432;2024-01-30T03:05:47;101350.49;;;12.60;43.56
84752;BME280;74978;37.772;-122.432;2024-01-30T03:08:13;101349.28;;;12.84;42.71
84752;BME280;74978;37.772;-122.432;2024-01-30T03:10:39;101350.60;;;13.80;41.72
84752;BME280;74978;37.772;-122.432;2024-01-30T03:13:04;101348.94;;;13.58;40.68
84752;BME280;74978;37.772;-122.432;2024-01-30T03:15:31;101351.19;;;16.21;37.96
84752;BME280;74978;37.772;-122.432;2024-01-30T03:17:56;101351.98;;;16.98;36.24
84752;BME280;74978;37.772;-122.432;2024-01-30T03:20:21;101351.53;;;16.35;36.29
84752;BME280;74978;37.772;-122.432;2024-01-30T03:22:47;101350.77;;;14.42;39.02
84752;BME280;74978;37.772;-122.432;2024-01-30T03:25:13;101347.27;;;13.60;40.44
84752;BME280;74978;37.772;-122.432;2024-01-30T03:27:38;101344.71;;;15.07;38.35
84752;BME280;74978;37.772;-122.432;2024-01-30T03:30:04;101346.41;;;15.51;36.80
84752;BME280;74978;37.772;-122.432;2024-01-30T03:32:29;101344.49;;;16.27;36.35
84752;BME280;74978;37.772;-122.432;2024-01-30T03:34:54;101346.17;;;15.50;37.95
84752;BME280;74978;37.772;-122.432;2024-01-30T03:37:20;101356.50;;;13.90;39.86
84752;BME280;74978;37.772;-122.432;2024-01-30T03:39:45;101359.18;;;13.72;41.11
84752;BME280;74978;37.772;-122.432;2024-01-30T03:42:10;101361.30;;;14.10;40.08
84752;BME280;74978;37.772;-122.432;2024-01-30T03:44:36;101360.33;;;14.66;39.86
84752;BME280;74978;37.772;-122.432;2024-01-30T03:47:01;101361.95;;;14.03;40.76
84752;BME280;74978;37.772;-122.432;2024-01-30T03:49:26;101362.59;;;14.21;39.60
84752;BME280;74978;37.772;-122.432;2024-01-30T03:51:52;101362.70;;;13.29;42.78
84752;BME280;74978;37.772;-122.432;2024-01-30T03:54:17;101365.05;;;12.37;44.92
84752;BME280;74978;37.772;-122.432;2024-01-30T03:56:43;101366.13;;;12.79;45.16
84752;BME280;74978;37.772;-122.432;2024-01-30T03:59:10;101369.58;;;12.22;45.34
84752;BME280;74978;37.772;-122.432;2024-01-30T04:01:34;101369.56;;;13.77;42.40
84752;BME280;74978;37.772;-122.432;2024-01-30T04:03:59;101367.04;;;13.39;43.05
84752;BME280;74978;37.772;-122.432;2024-01-30T04:06:24;101365.80;;;14.64;40.84
84752;BME280;74978;37.772;-122.432;2024-01-30T04:08:50;101364.36;;;15.52;39.95
84752;BME280;74978;37.772;-122.432;2024-01-30T04:11:17;101365.85;;;16.09;38.72
84752;BME280;74978;37.772;-122.432;2024-01-30T04:13:41;101366.61;;;15.39;38.44
84752;BME280;74978;37.772;-122.432;2024-01-30T04:16:07;101368.05;;;15.40;37.49
84752;BME280;74978;37.772;-122.432;2024-01-30T04:18:32;101365.91;;;14.86;38.93
84752;BME280;74978;37.772;-122.432;2024-01-30T04:20:57;101369.63;;;13.62;41.28
84752;BME280;74978;37.772;-122.432;2024-01-30T04:23:23;101372.81;;;13.46;42.42
84752;BME280;74978;37.772;-122.432;2024-01-30T04:25:48;101380.42;;;14.42;40.70
84752;BME280;74978;37.772;-122.432;2024-01-30T04:28:13;101384.41;;;13.25;41.66
84752;BME280;74978;37.772;-122.432;2024-01-30T04:30:39;101392.64;;;12.82;43.83
84752;BME280;74978;37.772;-122.432;2024-01-30T04:33:04;101392.56;;;14.56;41.74
84752;BME280;74978;37.772;-122.432;2024-01-30T04:35:30;101396.96;;;13.60;42.51
84752;BME280;74978;37.772;-122.432;2024-01-30T04:37:55;101401.96;;;12.91;44.21
84752;BME280;74978;37.772;-122.432;2024-01-30T04:40:21;101407.09;;;13.13;43.91
84752;BME280;74978;37.772;-122.432;2024-01-30T04:42:46;101413.55;;;13.28;43.99
84752;BME280;74978;37.772;-122.432;2024-01-30T04:45:11;101420.30;;;13.33;42.91
84752;BME280;74978;37.772;-122.432;2024-01-30T04:47:36;101425.74;;;13.87;42.13
84752;BME280;74978;37.772;-122.432;2024-01-30T04:50:02;101427.70;;;12.39;44.66
84752;BME280;74978;37.772;-122.432;2024-01-30T04:52:28;101433.15;;;11.02;50.09
84752;BME280;74978;37.772;-122.432;2024-01-30T04:54:53;101439.08;;;10.57;52.98
84752;BME280;74978;37.772;-122.432;2024-01-30T04:57:19;101445.82;;;9.64;56.14
84752;BME280;74978;37.772;-122.432;2024-01-30T04:59:45;101438.64;;;9.50;56.95
84752;BME280;74978;37.772;-122.432;2024-01-30T05:02:10;101433.26;;;8.93;58.15
84752;BME280;74978;37.772;-122.432;2024-01-30T05:04:36;101432.92;;;9.57;59.24
84752;BME280;74978;37.772;-122.432;2024-01-30T05:07:01;101435.05;;;10.08;58.64
84752;BME280;74978;37.772;-122.432;2024-01-30T05:09:26;101430.53;;;9.82;59.63
84752;BME280;74978;37.772;-122.432;2024-01-30T05:11:52;101427.07;;;9.56;60.20
84752;BME280;74978;37.772;-122.432;2024-01-30T05:14:22;101428.21;;;9.22;60.32
84752;BME280;74978;37.772;-122.432;2024-01-30T05:16:43;101427.79;;;9.42;60.20
84752;BME280;74978;37.772;-122.432;2024-01-30T05:19:08;101424.88;;;9.32;59.57
84752;BME280;74978;37.772;-122.432;2024-01-30T05:21:34;101417.57;;;9.60;61.07
84752;BME280;74978;37.772;-122.432;2024-01-30T05:23:59;101406.82;;;10.05;58.82
84752;BME280;74978;37.772;-122.432;2024-01-30T05:26:27;101391.12;;;10.95;56.02
84752;BME280;74978;37.772;-122.432;2024-01-30T05:28:50;101385.48;;;10.67;56.87
84752;BME280;74978;37.772;-122.432;2024-01-30T05:31:16;101380.95;;;10.80;54.70
84752;BME280;74978;37.772;-122.432;2024-01-30T05:33:41;101377.48;;;11.77;52.20
84752;BME280;74978;37.772;-122.432;2024-01-30T05:36:06;101377.38;;;10.91;51.42
84752;BME280;74978;37.772;-122.432;2024-01-30T05:38:32;101373.98;;;11.06;53.33
84752;BME280;74978;37.772;-122.432;2024-01-30T05:40:57;101377.55;;;12.74;49.68
84752;BME280;74978;37.772;-122.432;2024-01-30T05:43:22;101376.50;;;13.48;47.12
84752;BME280;74978;37.772;-122.432;2024-01-30T05:45:48;101383.13;;;13.89;46.85
84752;BME280;74978;37.772;-122.432;2024-01-30T05:48:13;101389.15;;;14.13;45.25
84752;BME280;74978;37.772;-122.432;2024-01-30T05:50:39;101392.27;;;16.92;41.25
84752;BME280;74978;37.772;-122.432;2024-01-30T05:53:04;101397.68;;;13.33;45.40
84752;BME280;74978;37.772;-122.432;2024-01-30T05:55:29;101401.49;;;11.55;51.48
84752;BME280;74978;37.772;-122.432;2024-01-30T05:57:55;101405.43;;;10.09;55.52
84752;BME280;74978;37.772;-122.432;2024-01-30T06:00:21;101405.13;;;10.29;56.12
84752;BME280;74978;37.772;-122.432;2024-01-30T06:02:47;101410.47;;;9.82;58.04
84752;BME280;74978;37.772;-122.432;2024-01-30T06:05:17;101411.44;;;9.49;59.21
84752;BME280;74978;37.772;-122.432;2024-01-30T06:07:37;101410.24;;;9.87;58.52
84752;BME280;74978;37.772;-122.432;2024-01-30T06:10:04;101404.00;;;9.76;57.69
84752;BME280;74978;37.772;-122.432;2024-01-30T06:12:28;101392.43;;;11.06;56.02
84752;BME280;74978;37.772;-122.432;2024-01-30T06:14:54;101386.05;;;11.32;55.90
84752;BME280;74978;37.772;-122.432;2024-01-30T06:17:19;101383.87;;;10.43;57.53
84752;BME280;74978;37.772;-122.432;2024-01-30T06:19:45;101382.86;;;11.24;55.75
84752;BME280;74978;37.772;-122.432;2024-01-30T06:22:11;101383.44;;;11.90;54.56
84752;BME280;74978;37.772;-122.432;2024-01-30T06:24:35;101387.79;;;10.38;56.95
84752;BME280;74978;37.772;-122.432;2024-01-30T06:27:01;101385.84;;;13.00;52.26
84752;BME280;74978;37.772;-122.432;2024-01-30T06:29:26;101387.69;;;12.13;53.16
84752;BME280;74978;37.772;-122.432;2024-01-30T06:31:52;101395.17;;;11.34;54.75
84752;BME280;74978;37.772;-122.432;2024-01-30T06:34:17;101400.73;;;10.68;56.36
84752;BME280;74978;37.772;-122.432;2024-01-30T06:36:44;101401.06;;;9.68;60.22
84752;BME280;74978;37.772;-122.432;2024-01-30T06:39:09;101406.00;;;8.94;61.81
84752;BME280;74978;37.772;-122.432;2024-01-30T06:41:34;101403.63;;;9.79;60.98
84752;BME280;74978;37.772;-122.432;2024-01-30T06:44:01;101396.64;;;10.02;60.05
84752;BME280;74978;37.772;-122.432;2024-01-30T06:46:25;101400.30;;;9.05;62.44
84752;BME280;74978;37.772;-122.432;2024-01-30T06:48:51;101404.45;;;9.06;63.94
84752;BME280;74978;37.772;-122.432;2024-01-30T06:51:16;101408.70;;;8.64;65.50
84752;BME280;74978;37.772;-122.432;2024-01-30T06:53:41;101415.79;;;8.44;67.63
84752;BME280;74978;37.772;-122.432;2024-01-30T06:56:07;101417.40;;;7.61;67.47
84752;BME280;74978;37.772;-122.432;2024-01-30T06:58:32;101414.95;;;8.42;67.63
84752;BME280;74978;37.772;-122.432;2024-01-30T07:00:58;101415.42;;;8.46;67.14
84752;BME280;74978;37.772;-122.432;2024-01-30T07:03:23;101411.18;;;8.75;67.66
84752;BME280;74978;37.772;-122.432;2024-01-30T07:05:49;101413.22;;;8.53;67.48
84752;BME280;74978;37.772;-122.432;2024-01-30T07:08:15;101411.61;;;8.61;67.07
84752;BME280;74978;37.772;-122.432;2024-01-30T07:10:40;101416.26;;;8.35;67.94
84752;BME280;74978;37.772;-122.432;2024-01-30T07:13:05;101418.12;;;7.87;68.39
84752;BME280;74978;37.772;-122.432;2024-01-30T07:15:31;101418.58;;;8.64;67.62
84752;BME280;74978;37.772;-122.432;2024-01-30T07:17:56;101415.23;;;8.90;65.93
84752;BME280;74978;37.772;-122.432;2024-01-30T07:20:21;101420.99;;;9.28;64.93
84752;BME280;74978;37.772;-122.432;2024-01-30T07:22:47;101428.81;;;8.93;65.55
84752;BME280;74978;37.772;-122.432;2024-01-30T07:25:13;101432.30;;;8.34;67.71
84752;BME280;74978;37.772;-122.432;2024-01-30T07:27:39;101433.19;;;8.62;69.05
84752;BME280;74978;37.772;-122.432;2024-01-30T07:30:05;101433.48;;;8.01;68.48
84752;BME280;74978;37.772;-122.432;2024-01-30T07:32:30;101432.54;;;8.70;68.19
84752;BME280;74978;37.772;-122.432;2024-01-30T07:34:55;101431.25;;;9.30;66.56
84752;BME280;74978;37.772;-122.432;2024-01-30T07:37:21;101423.63;;;8.86;66.60
84752;BME280;74978;37.772;-122.432;2024-01-30T07:39:47;101422.84;;;8.68;66.51
84752;BME280;74978;37.772;-122.432;2024-01-30T07:42:12;101421.07;;;8.54;67.58
84752;BME280;74978;37.772;-122.432;2024-01-30T07:44:37;101423.76;;;8.89;67.20
84752;BME280;74978;37.772;-122.432;2024-01-30T07:47:04;101423.09;;;8.44;68.22
84752;BME280;74978;37.772;-122.432;2024-01-30T07:49:27;101420.54;;;8.09;70.45
84752;BME280;74978;37.772;-122.432;2024-01-30T07:51:53;101414.77;;;8.52;69.91
84752;BME280;74978;37.772;-122.432;2024-01-30T07:54:17;101408.48;;;8.99;67.57
84752;BME280;74978;37.772;-122.432;2024-01-30T07:56:43;101402.61;;;9.43;66.32
84752;BME280;74978;37.772;-122.432;2024-01-30T07:59:10;101397.15;;;8.71;65.57
84752;BME280;74978;37.772;-122.432;2024-01-30T08:01:34;101398.07;;;8.65;68.43
84752;BME280;74978;37.772;-122.432;2024-01-30T08:04:00;101401.60;;;8.17;70.53
84752;BME280;74978;37.772;-122.432;2024-01-30T08:06:25;101392.56;;;8.52;69.77
84752;BME280;74978;37.772;-122.432;2024-01-30T08:08:50;101387.93;;;8.94;68.17
84752;BME280;74978;37.772;-122.432;2024-01-30T08:11:16;101392.73;;;8.53;67.23
84752;BME280;74978;37.772;-122.432;2024-01-30T08:13:42;101390.57;;;8.25;70.46
84752;BME280;74978;37.772;-122.432;2024-01-30T08:16:07;101387.74;;;8.09;68.66
84752;BME280;74978;37.772;-122.432;2024-01-30T08:18:32;101384.42;;;8.66;68.86
84752;BME280;74978;37.772;-122.432;2024-01-30T08:20:58;101383.96;;;8.44;70.25
84752;BME280;74978;37.772;-122.432;2024-01-30T08:23:24;101384.80;;;8.83;68.72
84752;BME280;74978;37.772;-122.432;2024-01-30T08:25:49;101387.46;;;8.78;67.95
84752;BME280;74978;37.772;-122.432;2024-01-30T08:28:15;101390.16;;;8.30;68.68
84752;BME280;74978;37.772;-122.432;2024-01-30T08:30:40;101396.20;;;8.59;69.21
84752;BME280;74978;37.772;-122.432;2024-01-30T08:33:05;101400.32;;;7.46;71.23
84752;BME280;74978;37.772;-122.432;2024-01-30T08:35:31;101411.74;;;8.00;72.60
84752;BME280;74978;37.772;-122.432;2024-01-30T08:37:56;101418.68;;;8.03;72.95
84752;BME280;74978;37.772;-122.432;2024-01-30T08:40:21;101426.20;;;7.79;73.29
84752;BME280;74978;37.772;-122.432;2024-01-30T08:42:47;101425.63;;;8.36;72.83
84752;BME280;74978;37.772;-122.432;2024-01-30T08:45:12;101428.68;;;7.85;73.46
84752;BME280;74978;37.772;-122.432;2024-01-30T08:47:38;101426.11;;;8.05;73.10
84752;BME280;74978;37.772;-122.432;2024-01-30T08:50:04;101411.63;;;7.84;72.41
84752;BME280;74978;37.772;-122.432;2024-01-30T08:52:29;101406.27;;;8.13;71.89
84752;BME280;74978;37.772;-122.432;2024-01-30T08:54:54;101404.35;;;8.14;72.33
84752;BME280;74978;37.772;-122.432;2024-01-30T08:57:20;101404.43;;;8.13;71.85
84752;BME280;74978;37.772;-122.432;2024-01-30T08:59:45;101407.88;;;8.43;72.22
84752;BME280;74978;37.772;-122.432;2024-01-30T09:02:10;101409.13;;;7.10;73.05
84752;BME280;74978;37.772;-122.432;2024-01-30T09:04:35;101409.38;;;8.05;73.22
84752;BME280;74978;37.772;-122.432;2024-01-30T09:07:01;101404.38;;;7.94;74.06
84752;BME280;74978;37.772;-122.432;2024-01-30T09:09:26;101403.84;;;8.15;74.39
84752;BME280;74978;37.772;-122.432;2024-01-30T09:11:51;101410.53;;;7.99;73.95
84752;BME280;74978;37.772;-122.432;2024-01-30T09:14:17;101409.36;;;7.92;74.30
84752;BME280;74978;37.772;-122.432;2024-01-30T09:16:42;101412.01;;;7.91;74.49
84752;BME280;74978;37.772;-122.432;2024-01-30T09:19:08;101408.31;;;7.05;75.91
84752;BME280;74978;37.772;-122.432;2024-01-30T09:21:33;101399.37;;;7.78;76.83
84752;BME280;74978;37.772;-122.432;2024-01-30T09:24:02;101397.49;;;7.84;76.38
84752;BME280;74978;37.772;-122.432;2024-01-30T09:26:23;101384.79;;;7.90;76.35
84752;BME280;74978;37.772;-122.432;2024-01-30T09:28:49;101389.58;;;8.10;76.76
84752;BME280;74978;37.772;-122.432;2024-01-30T09:31:14;101391.50;;;7.65;76.24
84752;BME280;74978;37.772;-122.432;2024-01-30T09:33:40;101388.83;;;8.02;77.36
84752;BME280;74978;37.772;-122.432;2024-01-30T09:36:06;101383.13;;;7.02;77.82
84752;BME280;74978;37.772;-122.432;2024-01-30T09:38:31;101381.68;;;7.87;77.59
84752;BME280;74978;37.772;-122.432;2024-01-30T09:41:02;101378.31;;;8.15;76.48
84752;BME280;74978;37.772;-122.432;2024-01-30T09:43:23;101380.76;;;7.89;76.75
84752;BME280;74978;37.772;-122.432;2024-01-30T09:45:49;101381.48;;;7.94;77.27
84752;BME280;74978;37.772;-122.432;2024-01-30T09:48:13;101383.93;;;7.65;78.58
84752;BME280;74978;37.772;-122.432;2024-01-30T09:50:39;101386.86;;;7.79;79.19
84752;BME280;74978;37.772;-122.432;2024-01-30T09:53:04;101385.99;;;7.20;79.86
84752;BME280;74978;37.772;-122.432;2024-01-30T09:55:29;101388.14;;;7.74;80.62
84752;BME280;74978;37.772;-122.432;2024-01-30T09:57:54;101393.95;;;8.05;81.55
84752;BME280;74978;37.772;-122.432;2024-01-30T10:00:20;101395.80;;;7.69;82.41
84752;BME280;74978;37.772;-122.432;2024-01-30T10:02:45;101389.06;;;8.01;82.04
84752;BME280;74978;37.772;-122.432;2024-01-30T10:05:11;101393.32;;;7.42;82.01
84752;BME280;74978;37.772;-122.432;2024-01-30T10:07:35;101395.68;;;7.91;81.29
84752;BME280;74978;37.772;-122.432;2024-01-30T10:10:00;101394.43;;;8.05;81.16
84752;BME280;74978;37.772;-122.432;2024-01-30T10:12:27;101398.46;;;7.67;81.31
84752;BME280;74978;37.772;-122.432;2024-01-30T10:14:51;101406.79;;;7.96;80.60
84752;BME280;74978;37.772;-122.432;2024-01-30T10:17:17;101402.69;;;7.67;80.67
84752;BME280;74978;37.772;-122.432;2024-01-30T10:19:43;101403.73;;;7.80;81.12
84752;BME280;74978;37.772;-122.432;2024-01-30T10:22:10;101405.87;;;7.31;80.87
84752;BME280;74978;37.772;-122.432;2024-01-30T10:24:34;101408.64;;;7.80;79.82
84752;BME280;74978;37.772;-122.432;2024-01-30T10:26:59;101415.35;;;7.98;79.77
84752;BME280;74978;37.772;-122.432;2024-01-30T10:29:24;101421.40;;;7.95;79.82
84752;BME280;74978;37.772;-122.432;2024-01-30T10:31:57;101418.23;;;7.65;80.13
84752;BME280;74978;37.772;-122.432;2024-01-30T10:34:15;101416.37;;;7.97;79.08
84752;BME280;74978;37.772;-122.432;2024-01-30T10:36:41;101415.56;;;8.02;79.88
84752;BME280;74978;37.772;-122.432;2024-01-30T10:39:07;101412.17;;;7.22;79.59
84752;BME280;74978;37.772;-122.432;2024-01-30T10:41:32;101404.70;;;8.02;78.89
84752;BME280;74978;37.772;-122.432;2024-01-30T10:44:02;101405.59;;;8.40;78.83
84752;BME280;74978;37.772;-122.432;2024-01-30T10:46:27;101410.92;;;7.86;79.61
84752;BME280;74978;37.772;-122.432;2024-01-30T10:48:56;101421.59;;;8.00;79.50
84752;BME280;74978;37.772;-122.432;2024-01-30T10:51:14;101421.20;;;7.89;78.81
84752;BME280;74978;37.772;-122.432;2024-01-30T10:53:40;101424.70;;;8.18;78.03
84752;BME280;74978;37.772;-122.432;2024-01-30T10:56:05;101424.65;;;7.86;77.11
84752;BME280;74978;37.772;-122.432;2024-01-30T10:58:30;101423.08;;;8.10;75.91
84752;BME280;74978;37.772;-122.432;2024-01-30T11:00:56;101425.77;;;8.55;74.73
84752;BME280;74978;37.772;-122.432;2024-01-30T11:03:21;101423.24;;;8.17;75.26
84752;BME280;74978;37.772;-122.432;2024-01-30T11:05:50;101427.13;;;8.44;74.65
84752;BME280;74978;37.772;-122.432;2024-01-30T11:08:12;101428.69;;;8.40;73.56
84752;BME280;74978;37.772;-122.432;2024-01-30T11:10:45;101431.98;;;8.57;73.96
84752;BME280;74978;37.772;-122.432;2024-01-30T11:13:12;101428.21;;;8.10;75.39
84752;BME280;74978;37.772;-122.432;2024-01-30T11:15:28;101422.98;;;8.44;75.73
84752;BME280;74978;37.772;-122.432;2024-01-30T11:17:53;101415.40;;;8.54;75.06
84752;BME280;74978;37.772;-122.432;2024-01-30T11:20:21;101419.17;;;8.38;74.72
84752;BME280;74978;37.772;-122.432;2024-01-30T11:22:45;101418.41;;;8.51;75.00
84752;BME280;74978;37.772;-122.432;2024-01-30T11:25:14;101418.56;;;8.44;73.93
84752;BME280;74978;37.772;-122.432;2024-01-30T11:27:36;101415.58;;;9.28;71.38
84752;BME280;74978;37.772;-122.432;2024-01-30T11:30:02;101410.00;;;9.62;68.81
84752;BME280;74978;37.772;-122.432;2024-01-30T11:32:27;101410.43;;;9.44;69.43
84752;BME280;74978;37.772;-122.432;2024-01-30T11:34:53;101408.17;;;9.50;69.70
84752;BME280;74978;37.772;-122.432;2024-01-30T11:37:20;101403.46;;;9.87;68.25
84752;BME280;74978;37.772;-122.432;2024-01-30T11:39:43;101403.39;;;10.05;66.39
84752;BME280;74978;37.772;-122.432;2024-01-30T11:42:09;101394.94;;;12.46;59.73
84752;BME280;74978;37.772;-122.432;2024-01-30T11:44:35;101388.49;;;11.91;59.98
84752;BME280;74978;37.772;-122.432;2024-01-30T11:47:00;101384.09;;;11.62;59.68
84752;BME280;74978;37.772;-122.432;2024-01-30T11:49:25;101386.00;;;10.59;62.83
84752;BME280;74978;37.772;-122.432;2024-01-30T11:51:51;101382.59;;;10.57;62.92
84752;BME280;74978;37.772;-122.432;2024-01-30T11:54:16;101371.95;;;10.38;63.21
84752;BME280;74978;37.772;-122.432;2024-01-30T11:56:42;101365.12;;;10.62;63.26
84752;BME280;74978;37.772;-122.432;2024-01-30T11:59:07;101357.43;;;9.83;62.66
84752;BME280;74978;37.772;-122.432;2024-01-30T12:01:33;101353.40;;;10.38;64.21
84752;BME280;74978;37.772;-122.432;2024-01-30T12:03:58;101350.41;;;10.58;63.76
84752;BME280;74978;37.772;-122.432;2024-01-30T12:06:23;101341.73;;;10.98;61.82
84752;BME280;74978;37.772;-122.432;2024-01-30T12:08:57;101336.17;;;11.55;60.48
84752;BME280;74978;37.772;-122.432;2024-01-30T12:11:15;101333.61;;;10.89;60.91
84752;BME280;74978;37.772;-122.432;2024-01-30T12:13:39;101331.23;;;12.69;56.98
84752;BME280;74978;37.772;-122.432;2024-01-30T12:16:05;101317.08;;;15.19;50.70